KORFKECG

Guest
Details From KORF - Norfolk Intl
To KECG - ELIZABETH CITY CGAS RGNL
Flight Number -
Tags generated
Created
Modified
Stats Distance 38 nm / 71 km
Max Altitude 0 ft / 0 m
Waypoints 3
Social Downloads 17
Likes 0
Share

Download

Looking for another format? Having issues loading an existing format? Contact us
Advertisement - Login to hide

Notes

Basic altitude profile: - Ascent Rate: 500ft/min - Ascent Speed: 80kts - Cruise Altitude: 4000ft - Cruise Speed: 120kts - Descent Rate: 500ft/min - Descent Speed: 80kts Options: - Use NATs: yes - Use PACOTS: yes - Use low airways: yes - Use high airways: no

Route

KORF ORF KECG

ID Type Via Altitude (ft/m) Position (lat/lon) Dist (leg/tot) Name
O KORF APT - 0 / 0 36.89461 / -76.20159 - / 0 nm Norfolk Intl
ORF VOR - 0 / 0 36.89189 / -76.20033 0 / 0 nm NORFOLK VORTAC
O KECG APT - 0 / 0 36.26048 / -76.17536 37 / 38 nm ELIZABETH CITY CGAS RGNL

Altitude Profile

Advertisement - Login to hide

KORF

Details ICAO KORF (ORF)
Name Norfolk
Region United States
Timezone America/New_York (UTC-4.0)
Stats Elevation 24 ft / 7 m (AMSL)
Location 36.894200° -76.202200°
Runways 2
Magnetic Variation 11.010° W

METAR

KORF 141451Z 00000KT 10SM CLR 29/16 A2995 RMK AO2 SLP143 T02890161 58004

Decode

TAF

TAF KORF 141120Z 1412/1512 17005KT P6SM SKC FM141500 12008KT P6SM SKC FM150000 15007KT P6SM FEW050 FM150600 VRB03KT P6SM SCT070

Decode

Departure Runways

ID Width Length Bearing (true/mag) Surface Threshold Overrun Markings Lighting
05 151 ft / 46 m 9,012 ft / 2,747 m 37.69° / 48.70° ASPHALT 1,001 ft / 305 m 197 ft / 60 m PREC-APP CENTERLINE EDGE THRESHOLD MALSR
14 151 ft / 46 m 4,880 ft / 1,487 m 128.11° / 139.12° ASPHALT 217 ft / 66 m 0 ft / 0 m APP EDGE THRESHOLD REIL-OMNI
23 151 ft / 46 m 9,012 ft / 2,747 m 217.70° / 228.71° ASPHALT 0 ft / 0 m 200 ft / 61 m PREC-APP CENTERLINE EDGE THRESHOLD MALSR
32 151 ft / 46 m 4,880 ft / 1,487 m 308.12° / 319.13° ASPHALT 0 ft / 0 m 0 ft / 0 m APP EDGE THRESHOLD REIL-OMNI

KECG

Details ICAO KECG (ECG)
Name Elizabeth City Regional Airport
Region United States
Timezone America/New_York (UTC-4.0)
Stats Elevation 10 ft / 3 m (AMSL)
Location 36.260900° -76.172000°
Runways 1
Magnetic Variation 10.930° W

METAR

KECG 141454Z VRB04KT 10SM CLR 28/17 A2996 RMK AO2 SLP144 T02780172 56004

Decode

TAF

TAF TAF KECG 141120Z 1412/1512 VRB04KT P6SM SKC FM141500 09007KT P6SM SKC FM150000 13004KT P6SM FEW250 FM150600 VRB04KT P6SM SCT250

Decode

Destination Runways

ID Width Length Bearing (true/mag) Surface Threshold Overrun Markings Lighting
10 150 ft / 46 m 7,204 ft / 2,196 m 92.41° / 103.34° CONCRETE 0 ft / 0 m 0 ft / 0 m APP CENTERLINE EDGE THRESHOLD
28 150 ft / 46 m 7,204 ft / 2,196 m 272.43° / 283.36° CONCRETE 0 ft / 0 m 0 ft / 0 m APP CENTERLINE EDGE THRESHOLD TDZ REIL-OMNI

Popular Alternatives